Time;durP1;ratioP1;P1;durP2;ratioP2;P2;SDS_P1;SDS_P2;PMS_P1;PMS_P2;Temp;Humidity;BMP_temperature;BMP_pressure;BME280_temperature;BME280_humidity;BME280_pressure;Samples;Min_cycle;Max_cycle;Signal;HPM_P1;HPM_P2
2022/10/25 00:01:30;;;;;;;;;;;16.00;99.90;;;;;;5015228;28;19909;-83
2022/10/25 00:03:56;;;;;;;;;;;16.00;99.90;;;;;;5032886;28;20427;-83
2022/10/25 00:06:22;;;;;;;;;;;16.00;99.90;;;;;;5014918;28;20006;-84
2022/10/25 00:08:47;;;;;;;;;;;16.00;99.90;;;;;;5015068;28;20388;-83
2022/10/25 00:11:18;;;;;;;;;;;16.00;99.90;;;;;;5032982;28;19913;-83
2022/10/25 00:13:44;;;;;;;;;;;16.00;99.90;;;;;;5032002;28;20430;-82
2022/10/25 00:16:16;;;;;;;;;;;15.90;99.90;;;;;;5015001;28;19913;-83
2022/10/25 00:18:42;;;;;;;;;;;15.90;99.90;;;;;;5032951;28;19909;-82
2022/10/25 00:21:07;;;;;;;;;;;15.90;99.90;;;;;;5015442;28;20257;-83
2022/10/25 00:23:33;;;;;;;;;;;15.90;99.90;;;;;;5014913;28;19928;-82
2022/10/25 00:26:02;;;;;;;;;;;15.90;99.90;;;;;;5014867;28;19932;-82
2022/10/25 00:28:27;;;;;;;;;;;15.90;99.90;;;;;;5015162;28;20026;-83
2022/10/25 00:31:03;;;;;;;;;;;15.90;99.90;;;;;;5015149;28;19996;-82
2022/10/25 00:33:32;;;;;;;;;;;15.90;99.90;;;;;;5014934;28;19973;-83
2022/10/25 00:36:17;;;;;;;;;;;15.90;99.90;;;;;;5014808;28;19909;-82
2022/10/25 00:38:44;;;;;;;;;;;15.90;99.90;;;;;;5015053;28;19909;-83
2022/10/25 00:41:10;;;;;;;;;;;15.90;99.90;;;;;;5032831;28;20148;-82
2022/10/25 00:43:42;;;;;;;;;;;15.80;99.90;;;;;;5014972;28;20017;-82
2022/10/25 00:46:16;;;;;;;;;;;15.80;99.90;;;;;;5014888;28;20384;-82
2022/10/25 00:48:46;;;;;;;;;;;15.80;99.90;;;;;;5014983;28;19909;-83
2022/10/25 00:51:11;;;;;;;;;;;15.80;99.90;;;;;;5015092;28;19920;-83
2022/10/25 00:53:37;;;;;;;;;;;15.80;99.90;;;;;;5014666;28;19909;-82
2022/10/25 00:56:18;;;;;;;;;;;15.80;99.90;;;;;;5032267;28;19909;-82
2022/10/25 00:58:45;;;;;;;;;;;15.70;99.90;;;;;;5014674;28;19909;-82
2022/10/25 01:01:13;;;;;;;;;;;15.70;99.90;;;;;;5014942;28;20051;-84
2022/10/25 01:03:39;;;;;;;;;;;15.70;99.90;;;;;;5032214;28;19913;-82
2022/10/25 01:06:06;;;;;;;;;;;15.70;99.90;;;;;;5014552;28;19913;-82
2022/10/25 01:08:32;;;;;;;;;;;15.80;99.90;;;;;;5014884;28;20327;-82
2022/10/25 01:10:57;;;;;;;;;;;15.70;99.90;;;;;;5032296;28;19920;-82
2022/10/25 01:13:23;;;;;;;;;;;15.80;99.90;;;;;;5014552;28;19909;-82
2022/10/25 01:15:58;;;;;;;;;;;15.80;99.90;;;;;;5014239;28;19909;-83
2022/10/25 01:18:42;;;;;;;;;;;15.80;99.90;;;;;;5014581;28;19909;-82
2022/10/25 01:21:16;;;;;;;;;;;15.80;99.90;;;;;;5032021;28;19936;-83
2022/10/25 01:23:45;;;;;;;;;;;15.80;99.90;;;;;;5014181;28;19909;-82
2022/10/25 01:26:20;;;;;;;;;;;15.80;99.90;;;;;;5014227;28;19909;-82
2022/10/25 01:29:04;;;;;;;;;;;15.80;99.90;;;;;;5014752;28;19935;-82
2022/10/25 01:31:33;;;;;;;;;;;15.80;99.90;;;;;;5014469;28;19913;-83
2022/10/25 01:34:06;;;;;;;;;;;15.80;99.90;;;;;;5014369;28;19959;-82
2022/10/25 01:36:40;;;;;;;;;;;15.90;99.90;;;;;;5014093;28;19909;-82
2022/10/25 01:39:18;;;;;;;;;;;15.90;99.90;;;;;;5031012;28;20415;-82
2022/10/25 01:41:51;;;;;;;;;;;15.80;99.90;;;;;;5032017;28;19909;-81
2022/10/25 01:44:30;;;;;;;;;;;15.90;99.90;;;;;;5032221;28;20361;-83
2022/10/25 01:47:16;;;;;;;;;;;15.90;99.90;;;;;;5034199;28;20031;-83
2022/10/25 01:50:01;;;;;;;;;;;16.00;99.90;;;;;;5035037;28;19967;-83
2022/10/25 01:52:26;;;;;;;;;;;16.10;99.90;;;;;;5017867;28;20412;-82
2022/10/25 01:54:52;;;;;;;;;;;16.00;99.90;;;;;;5017905;28;19909;-82
2022/10/25 01:57:20;;;;;;;;;;;16.10;99.90;;;;;;5035285;28;19916;-82
2022/10/25 01:59:55;;;;;;;;;;;16.00;99.90;;;;;;5017931;28;19913;-83
2022/10/25 02:02:27;;;;;;;;;;;16.10;99.90;;;;;;5017667;28;19960;-83
2022/10/25 02:05:01;;;;;;;;;;;16.00;99.90;;;;;;5034116;28;19960;-83
2022/10/25 02:07:30;;;;;;;;;;;15.90;99.90;;;;;;5017575;28;19909;-83
2022/10/25 02:09:55;;;;;;;;;;;15.90;99.90;;;;;;5017737;28;19917;-83
2022/10/25 02:12:27;;;;;;;;;;;15.90;99.90;;;;;;5017528;28;19959;-83
2022/10/25 02:15:09;;;;;;;;;;;15.90;99.90;;;;;;5034009;28;20012;-82
2022/10/25 02:17:39;;;;;;;;;;;15.90;99.90;;;;;;5035182;28;19941;-82
2022/10/25 02:20:06;;;;;;;;;;;15.80;99.90;;;;;;5035318;28;19955;-83
2022/10/25 02:22:33;;;;;;;;;;;15.70;99.90;;;;;;5017368;28;19915;-83
2022/10/25 02:24:58;;;;;;;;;;;15.70;99.90;;;;;;5017195;28;19967;-83
2022/10/25 02:27:25;;;;;;;;;;;15.70;99.90;;;;;;5017070;28;19909;-82
2022/10/25 02:29:51;;;;;;;;;;;15.70;99.90;;;;;;5017073;28;19958;-83
2022/10/25 02:32:16;;;;;;;;;;;15.70;99.90;;;;;;5033804;28;19916;-83
2022/10/25 02:34:42;;;;;;;;;;;15.60;99.90;;;;;;5017072;28;20296;-82
2022/10/25 02:37:08;;;;;;;;;;;15.60;99.90;;;;;;5016937;28;19909;-82
2022/10/25 02:39:34;;;;;;;;;;;15.60;99.90;;;;;;5034303;28;19909;-83
2022/10/25 02:42:01;;;;;;;;;;;15.50;99.90;;;;;;5017111;28;19909;-83
2022/10/25 02:44:27;;;;;;;;;;;15.60;99.90;;;;;;5016954;28;20020;-83
2022/10/25 02:46:52;;;;;;;;;;;15.50;99.90;;;;;;5016734;28;20004;-82
2022/10/25 02:49:18;;;;;;;;;;;15.60;99.90;;;;;;5034647;28;19957;-82
2022/10/25 02:51:43;;;;;;;;;;;15.70;99.90;;;;;;5016849;28;19960;-83
2022/10/25 02:54:09;;;;;;;;;;;15.70;99.90;;;;;;5016863;28;19909;-83
2022/10/25 02:56:34;;;;;;;;;;;15.70;99.90;;;;;;5015305;28;19941;-83
2022/10/25 02:59:00;;;;;;;;;;;15.70;99.90;;;;;;5016836;28;20353;-82
2022/10/25 03:01:25;;;;;;;;;;;15.80;99.90;;;;;;5016545;28;19913;-82
2022/10/25 03:03:51;;;;;;;;;;;15.90;99.90;;;;;;5034181;28;20262;-82
2022/10/25 03:06:16;;;;;;;;;;;15.90;99.90;;;;;;5016304;28;19913;-82
2022/10/25 03:08:43;;;;;;;;;;;15.90;99.90;;;;;;5016327;28;19916;-82
2022/10/25 03:11:10;;;;;;;;;;;16.00;99.90;;;;;;5016476;28;19913;-82
2022/10/25 03:13:35;;;;;;;;;;;16.00;99.90;;;;;;5016168;28;20268;-83
2022/10/25 03:16:00;;;;;;;;;;;16.00;99.90;;;;;;5016144;28;19916;-82
2022/10/25 03:18:26;;;;;;;;;;;16.00;99.90;;;;;;5015802;28;19909;-82
2022/10/25 03:20:55;;;;;;;;;;;16.00;99.90;;;;;;5016339;28;19973;-83
2022/10/25 03:23:20;;;;;;;;;;;16.10;99.90;;;;;;5033857;28;19909;-82
2022/10/25 03:25:46;;;;;;;;;;;16.10;99.90;;;;;;5015978;28;19991;-82
2022/10/25 03:28:11;;;;;;;;;;;16.20;99.90;;;;;;5033923;28;20007;-83
2022/10/25 03:30:37;;;;;;;;;;;16.20;99.90;;;;;;5016046;28;20327;-83
2022/10/25 03:33:02;;;;;;;;;;;16.30;99.90;;;;;;5015841;28;19920;-83
2022/10/25 03:35:27;;;;;;;;;;;16.30;99.90;;;;;;5033453;28;20349;-82
2022/10/25 03:37:53;;;;;;;;;;;16.30;99.90;;;;;;5016075;28;19910;-82
2022/10/25 03:40:19;;;;;;;;;;;16.30;99.90;;;;;;5033645;28;19909;-83
2022/10/25 03:42:45;;;;;;;;;;;16.30;99.90;;;;;;5015693;28;19916;-83
2022/10/25 03:45:11;;;;;;;;;;;16.20;99.90;;;;;;5015664;28;19909;-82
2022/10/25 03:47:37;;;;;;;;;;;16.30;99.90;;;;;;5015591;28;19955;-82
2022/10/25 03:50:03;;;;;;;;;;;16.30;99.90;;;;;;5015569;28;20331;-83
2022/10/25 03:52:28;;;;;;;;;;;16.30;99.90;;;;;;5015741;28;19909;-82
2022/10/25 03:54:54;;;;;;;;;;;16.30;99.90;;;;;;5015229;28;20285;-82
2022/10/25 03:57:19;;;;;;;;;;;15.90;99.90;;;;;;5032939;28;19920;-83
2022/10/25 03:59:45;;;;;;;;;;;15.60;99.90;;;;;;5015514;28;20388;-83
2022/10/25 04:02:10;;;;;;;;;;;15.30;99.90;;;;;;5033121;28;19916;-84
2022/10/25 04:04:36;;;;;;;;;;;15.20;99.90;;;;;;5061206;22;19924;-83
2022/10/25 04:07:01;;;;;;;;;;;15.10;99.90;;;;;;5086492;28;19912;-83
2022/10/25 04:09:29;;;;;;;;;;;15.00;99.90;;;;;;5070019;28;22271;-83
2022/10/25 04:11:54;;;;;;;;;;;15.00;99.90;;;;;;5089322;28;19915;-83
2022/10/25 04:14:20;;;;;;;;;;;14.90;99.90;;;;;;5088897;28;19908;-82
2022/10/25 04:16:45;;;;;;;;;;;15.00;99.90;;;;;;5085663;28;19908;-82
2022/10/25 04:19:11;;;;;;;;;;;14.80;99.90;;;;;;5086737;28;19912;-82
2022/10/25 04:21:36;;;;;;;;;;;14.70;99.90;;;;;;5087418;28;19909;-83
2022/10/25 04:24:02;;;;;;;;;;;14.60;99.90;;;;;;5087307;28;19938;-83
2022/10/25 04:26:28;;;;;;;;;;;14.60;99.90;;;;;;5086619;28;19930;-83
2022/10/25 04:28:54;;;;;;;;;;;14.70;99.90;;;;;;5086056;28;19915;-82
2022/10/25 04:31:20;;;;;;;;;;;14.70;99.90;;;;;;5089988;28;19912;-83
2022/10/25 04:33:49;;;;;;;;;;;14.70;99.90;;;;;;5090182;28;19916;-83
2022/10/25 04:36:15;;;;;;;;;;;14.70;99.90;;;;;;5091382;28;19915;-82
2022/10/25 04:38:40;;;;;;;;;;;14.80;99.90;;;;;;5108150;28;19936;-83
2022/10/25 04:41:06;;;;;;;;;;;14.80;99.90;;;;;;5089646;28;19939;-82
2022/10/25 04:43:31;;;;;;;;;;;14.80;99.90;;;;;;5090065;28;19916;-82
2022/10/25 04:46:00;;;;;;;;;;;14.80;99.90;;;;;;5091400;28;19967;-82
2022/10/25 04:48:26;;;;;;;;;;;14.80;99.90;;;;;;5089053;28;19979;-83
2022/10/25 04:50:51;;;;;;;;;;;14.80;99.90;;;;;;5107108;28;20282;-82
2022/10/25 04:53:17;;;;;;;;;;;14.80;99.90;;;;;;5077422;28;19908;-82
2022/10/25 04:55:42;;;;;;;;;;;14.80;99.90;;;;;;5092593;28;20056;-83
2022/10/25 04:58:08;;;;;;;;;;;14.80;99.90;;;;;;5074472;28;19908;-82
2022/10/25 05:00:33;;;;;;;;;;;14.90;99.90;;;;;;5074402;28;20367;-82
2022/10/25 05:02:59;;;;;;;;;;;14.90;99.90;;;;;;5074427;28;20006;-82
2022/10/25 05:05:26;;;;;;;;;;;14.90;99.90;;;;;;5073942;28;19923;-83
2022/10/25 05:07:51;;;;;;;;;;;14.90;99.90;;;;;;5074413;28;19912;-81
2022/10/25 05:10:16;;;;;;;;;;;14.90;99.90;;;;;;5074179;28;19919;-83
2022/10/25 05:12:42;;;;;;;;;;;14.90;99.90;;;;;;5074341;28;19909;-82
2022/10/25 05:15:08;;;;;;;;;;;14.90;99.90;;;;;;5092219;28;20346;-81
2022/10/25 05:17:33;;;;;;;;;;;15.00;99.90;;;;;;5092203;28;19912;-81
2022/10/25 05:19:59;;;;;;;;;;;15.00;99.90;;;;;;5076707;28;20252;-82
2022/10/25 05:22:24;;;;;;;;;;;15.00;99.90;;;;;;5078123;28;19908;-82
2022/10/25 05:24:50;;;;;;;;;;;15.00;99.90;;;;;;5096015;28;19957;-82
2022/10/25 05:27:16;;;;;;;;;;;15.00;99.90;;;;;;5077887;28;19912;-82
2022/10/25 05:29:41;;;;;;;;;;;15.00;99.90;;;;;;5077857;28;20314;-81
2022/10/25 05:32:07;;;;;;;;;;;15.00;99.90;;;;;;5077880;28;19912;-82
2022/10/25 05:34:32;;;;;;;;;;;15.00;99.90;;;;;;5077763;28;19916;-82
2022/10/25 05:36:58;;;;;;;;;;;14.90;99.90;;;;;;5095689;28;19908;-83
2022/10/25 05:39:23;;;;;;;;;;;14.90;99.90;;;;;;5077760;28;19908;-82
2022/10/25 05:41:49;;;;;;;;;;;14.80;99.90;;;;;;5095856;28;19914;-82
2022/10/25 05:44:15;;;;;;;;;;;14.80;99.90;;;;;;5077956;28;19915;-82
2022/10/25 05:46:41;;;;;;;;;;;14.70;99.90;;;;;;5077287;28;19930;-81
2022/10/25 05:49:07;;;;;;;;;;;14.70;99.90;;;;;;5095052;28;19908;-82
2022/10/25 05:51:32;;;;;;;;;;;14.60;99.90;;;;;;5076185;28;19912;-83
2022/10/25 05:53:59;;;;;;;;;;;14.70;99.90;;;;;;5077352;28;19914;-83
2022/10/25 05:56:26;;;;;;;;;;;14.50;99.90;;;;;;5077180;28;19908;-82
2022/10/25 05:58:51;;;;;;;;;;;14.40;99.90;;;;;;5077419;28;19961;-81
2022/10/25 06:01:18;;;;;;;;;;;14.30;99.90;;;;;;5077395;28;20275;-81
2022/10/25 06:03:46;;;;;;;;;;;14.40;99.90;;;;;;5077319;28;20011;-82
2022/10/25 06:06:12;;;;;;;;;;;14.30;99.90;;;;;;5076937;28;20366;-82
2022/10/25 06:08:37;;;;;;;;;;;14.40;99.90;;;;;;5095566;28;19960;-82
2022/10/25 06:11:04;;;;;;;;;;;14.40;99.90;;;;;;5095221;28;19919;-82
2022/10/25 06:13:30;;;;;;;;;;;14.50;99.90;;;;;;5095196;28;19915;-82
2022/10/25 06:15:55;;;;;;;;;;;14.50;99.90;;;;;;5076841;28;19908;-82
2022/10/25 06:18:21;;;;;;;;;;;14.40;99.90;;;;;;5076441;28;20371;-82
2022/10/25 06:20:46;;;;;;;;;;;14.40;99.90;;;;;;5076735;28;19957;-82
2022/10/25 06:23:11;;;;;;;;;;;14.30;99.90;;;;;;5076617;28;19958;-82
2022/10/25 06:25:37;;;;;;;;;;;14.30;99.90;;;;;;5094762;28;19911;-82
2022/10/25 06:28:03;;;;;;;;;;;14.30;99.90;;;;;;5076877;28;19915;-82
2022/10/25 06:30:28;;;;;;;;;;;14.30;99.90;;;;;;5094678;28;19912;-82
2022/10/25 06:32:53;;;;;;;;;;;14.20;99.90;;;;;;5094927;28;19915;-82
2022/10/25 06:35:19;;;;;;;;;;;14.20;99.90;;;;;;5076610;28;19908;-81
2022/10/25 06:37:45;;;;;;;;;;;14.20;99.90;;;;;;5076576;28;19908;-82
2022/10/25 06:40:10;;;;;;;;;;;14.20;99.90;;;;;;5076525;28;20417;-82
2022/10/25 06:42:36;;;;;;;;;;;14.20;99.90;;;;;;5076464;28;19908;-82
2022/10/25 06:45:02;;;;;;;;;;;14.20;99.90;;;;;;5076497;28;19912;-82
2022/10/25 06:47:27;;;;;;;;;;;14.30;99.90;;;;;;5076038;28;20363;-82
2022/10/25 06:49:52;;;;;;;;;;;14.30;99.90;;;;;;5094361;28;19927;-82
2022/10/25 06:52:18;;;;;;;;;;;14.40;99.90;;;;;;5076347;28;19909;-82
2022/10/25 06:54:43;;;;;;;;;;;14.40;99.90;;;;;;5076281;28;19908;-83
2022/10/25 06:57:09;;;;;;;;;;;14.40;99.90;;;;;;5094140;28;19908;-81
2022/10/25 06:59:34;;;;;;;;;;;14.50;99.90;;;;;;5094298;28;19908;-81
2022/10/25 07:02:00;;;;;;;;;;;14.60;99.90;;;;;;5076328;28;20436;-83
2022/10/25 07:04:25;;;;;;;;;;;14.70;99.90;;;;;;5076115;28;19912;-82
2022/10/25 07:06:51;;;;;;;;;;;14.80;99.90;;;;;;5094017;28;19912;-82
2022/10/25 07:09:16;;;;;;;;;;;14.80;99.90;;;;;;5076036;28;19908;-82
2022/10/25 07:11:44;;;;;;;;;;;14.90;99.90;;;;;;5075914;28;20574;-82
2022/10/25 07:14:10;;;;;;;;;;;15.00;99.90;;;;;;5075911;28;19908;-82
2022/10/25 07:16:36;;;;;;;;;;;15.00;99.90;;;;;;5093843;28;19908;-82
2022/10/25 07:19:02;;;;;;;;;;;15.00;99.90;;;;;;5075853;28;20394;-82
2022/10/25 07:21:29;;;;;;;;;;;15.00;99.90;;;;;;5075873;28;20351;-82
2022/10/25 07:23:54;;;;;;;;;;;15.00;99.90;;;;;;5075635;28;19908;-82
2022/10/25 07:26:21;;;;;;;;;;;15.00;99.90;;;;;;5093684;28;19919;-82
2022/10/25 07:28:47;;;;;;;;;;;15.00;99.90;;;;;;5075755;28;19961;-83
2022/10/25 07:31:33;;;;;;;;;;;15.10;99.90;;;;;;5075649;28;19919;-82
2022/10/25 07:33:59;;;;;;;;;;;15.20;99.90;;;;;;5074588;28;19908;-83
2022/10/25 07:36:25;;;;;;;;;;;15.30;99.90;;;;;;5075462;28;19908;-83
2022/10/25 07:38:50;;;;;;;;;;;15.40;99.90;;;;;;5075223;28;19912;-82
2022/10/25 07:41:16;;;;;;;;;;;15.50;99.90;;;;;;5074935;28;19955;-82
2022/10/25 07:43:41;;;;;;;;;;;15.60;99.90;;;;;;5093428;28;20322;-83
2022/10/25 07:46:07;;;;;;;;;;;15.70;99.90;;;;;;5075248;28;19909;-83
2022/10/25 07:48:33;;;;;;;;;;;15.70;99.90;;;;;;5075673;28;19908;-83
2022/10/25 07:51:25;;;;;;;;;;;15.80;99.90;;;;;;5075727;28;19967;-83
2022/10/25 07:53:51;;;;;;;;;;;16.00;99.90;;;;;;5070639;28;19998;-82
2022/10/25 07:56:18;;;;;;;;;;;16.20;99.90;;;;;;5075112;28;19953;-82
2022/10/25 07:58:44;;;;;;;;;;;16.40;99.90;;;;;;5075229;28;19908;-82
2022/10/25 08:01:10;;;;;;;;;;;16.60;99.90;;;;;;5075100;28;19908;-82
2022/10/25 08:03:35;;;;;;;;;;;16.70;99.90;;;;;;5093243;28;19935;-83
2022/10/25 08:06:01;;;;;;;;;;;16.80;99.90;;;;;;5092787;28;20390;-82
2022/10/25 08:08:27;;;;;;;;;;;16.90;99.90;;;;;;5075107;28;19912;-83
2022/10/25 08:10:53;;;;;;;;;;;17.00;99.90;;;;;;5074784;28;19912;-82
2022/10/25 08:13:18;;;;;;;;;;;17.00;99.90;;;;;;5074977;28;19908;-82
2022/10/25 08:15:51;;;;;;;;;;;17.00;99.90;;;;;;5074602;28;20028;-82
2022/10/25 08:18:16;;;;;;;;;;;17.00;99.90;;;;;;5074904;28;19998;-82
2022/10/25 08:20:42;;;;;;;;;;;17.10;99.90;;;;;;5074931;28;19956;-82
2022/10/25 08:23:07;;;;;;;;;;;17.20;99.90;;;;;;5074860;28;19908;-84
2022/10/25 08:25:33;;;;;;;;;;;17.30;99.90;;;;;;5074395;28;19912;-82
2022/10/25 08:27:58;;;;;;;;;;;17.40;99.90;;;;;;5074919;28;19999;-82
2022/10/25 08:30:24;;;;;;;;;;;17.30;99.90;;;;;;5074446;28;19912;-82
2022/10/25 08:32:49;;;;;;;;;;;17.40;99.90;;;;;;5074616;28;19956;-82
2022/10/25 08:35:15;;;;;;;;;;;17.50;99.90;;;;;;5092779;28;19909;-82
2022/10/25 08:37:40;;;;;;;;;;;17.70;99.90;;;;;;5074435;28;20292;-82
2022/10/25 08:40:07;;;;;;;;;;;17.70;99.90;;;;;;5074534;28;20382;-82
2022/10/25 08:42:42;;;;;;;;;;;17.60;99.90;;;;;;5074479;28;19908;-82
2022/10/25 08:45:12;;;;;;;;;;;17.60;99.90;;;;;;5074738;28;19919;-82
2022/10/25 08:47:40;;;;;;;;;;;17.70;99.90;;;;;;5092409;28;19908;-82
2022/10/25 08:50:11;;;;;;;;;;;17.70;99.90;;;;;;5074447;28;19916;-82
2022/10/25 08:52:42;;;;;;;;;;;17.70;99.90;;;;;;5074028;28;20454;-82
2022/10/25 08:55:13;;;;;;;;;;;17.60;99.90;;;;;;5095589;28;19912;-81
2022/10/25 08:57:40;;;;;;;;;;;17.50;99.90;;;;;;5078444;28;19908;-83
2022/10/25 09:00:26;;;;;;;;;;;17.50;99.90;;;;;;5078620;28;19915;-83
2022/10/25 09:02:53;;;;;;;;;;;17.50;99.90;;;;;;5061678;28;19920;-83
2022/10/25 09:05:30;;;;;;;;;;;17.40;99.90;;;;;;5076285;28;19916;-82
2022/10/25 09:08:14;;;;;;;;;;;17.40;99.90;;;;;;5067898;28;19995;-83
2022/10/25 09:10:57;;;;;;;;;;;17.50;99.90;;;;;;5058133;28;19959;-82
2022/10/25 09:13:25;;;;;;;;;;;17.80;99.90;;;;;;5058286;28;19991;-83
2022/10/25 09:15:56;;;;;;;;;;;18.00;99.90;;;;;;5057715;28;19908;-82
2022/10/25 09:18:28;;;;;;;;;;;18.10;99.90;;;;;;5057865;28;19916;-83
2022/10/25 09:20:54;;;;;;;;;;;18.00;99.90;;;;;;5057355;28;20417;-82
2022/10/25 09:23:30;;;;;;;;;;;18.30;99.90;;;;;;5074709;28;19909;-83
2022/10/25 09:26:08;;;;;;;;;;;18.40;99.90;;;;;;5075269;28;20322;-83
2022/10/25 09:28:42;;;;;;;;;;;18.50;99.90;;;;;;5058027;28;20398;-83
2022/10/25 09:31:12;;;;;;;;;;;18.70;99.90;;;;;;5057422;28;19938;-83
2022/10/25 09:33:40;;;;;;;;;;;18.60;99.90;;;;;;5075956;28;19909;-83
2022/10/25 09:36:07;;;;;;;;;;;18.40;99.90;;;;;;5057413;28;19908;-83
2022/10/25 09:38:32;;;;;;;;;;;18.30;99.90;;;;;;5057957;28;19913;-83
2022/10/25 09:41:03;;;;;;;;;;;18.30;99.90;;;;;;5057634;28;19908;-84
2022/10/25 09:43:54;;;;;;;;;;;18.40;99.90;;;;;;5057902;28;19908;-83
2022/10/25 09:46:31;;;;;;;;;;;18.50;99.90;;;;;;5019213;28;19915;-83
2022/10/25 09:49:19;;;;;;;;;;;18.60;99.90;;;;;;5057440;28;19908;-83
2022/10/25 09:51:53;;;;;;;;;;;18.60;99.90;;;;;;5028460;28;19944;-83
2022/10/25 09:54:29;;;;;;;;;;;18.80;99.90;;;;;;5057291;28;20378;-83
2022/10/25 09:56:55;;;;;;;;;;;18.80;99.90;;;;;;5057093;28;19908;-83
2022/10/25 09:59:20;;;;;;;;;;;18.80;99.90;;;;;;5075143;28;19912;-83
2022/10/25 10:01:46;;;;;;;;;;;18.90;99.90;;;;;;5074928;28;19909;-82
2022/10/25 10:06:39;;;;;;;;;;;18.90;99.90;;;;;;5115808;22;19924;-83
2022/10/25 10:09:09;;;;;;;;;;;18.90;99.90;;;;;;5077065;28;19908;-83
2022/10/25 10:11:35;;;;;;;;;;;18.90;99.90;;;;;;5077331;28;19919;-83
2022/10/25 10:14:10;;;;;;;;;;;19.10;99.90;;;;;;5095286;28;19908;-83
2022/10/25 10:16:44;;;;;;;;;;;19.20;99.90;;;;;;5075835;28;19915;-82
2022/10/25 10:19:19;;;;;;;;;;;19.20;99.90;;;;;;5077305;28;19908;-82
2022/10/25 10:21:53;;;;;;;;;;;19.10;99.90;;;;;;5076971;28;19908;-81
2022/10/25 10:24:24;;;;;;;;;;;18.90;99.90;;;;;;5077132;28;19919;-82
2022/10/25 10:26:56;;;;;;;;;;;18.90;99.90;;;;;;5076989;28;19914;-82
2022/10/25 10:29:28;;;;;;;;;;;18.90;99.90;;;;;;5077141;28;19908;-81
2022/10/25 10:31:55;;;;;;;;;;;18.90;99.90;;;;;;5094934;28;19908;-81
2022/10/25 10:34:29;;;;;;;;;;;18.90;99.90;;;;;;5075797;28;19908;-81
2022/10/25 10:37:01;;;;;;;;;;;18.80;99.90;;;;;;5076405;28;20371;-81
2022/10/25 10:39:26;;;;;;;;;;;18.90;99.90;;;;;;5094869;28;19951;-82
2022/10/25 10:42:02;;;;;;;;;;;18.90;99.90;;;;;;5094429;28;20307;-81
2022/10/25 10:44:33;;;;;;;;;;;19.00;99.90;;;;;;5076420;28;19912;-80
2022/10/25 10:46:59;;;;;;;;;;;19.10;99.90;;;;;;5076339;28;20291;-82
2022/10/25 10:49:32;;;;;;;;;;;19.30;99.90;;;;;;5076057;28;20010;-81
2022/10/25 10:51:57;;;;;;;;;;;19.90;99.90;;;;;;5076456;28;19908;-81
2022/10/25 10:54:25;;;;;;;;;;;20.10;99.90;;;;;;5094208;28;19960;-81
2022/10/25 10:57:13;;;;;;;;;;;20.00;99.90;;;;;;5076055;28;19908;-81
2022/10/25 10:59:41;;;;;;;;;;;19.70;99.90;;;;;;5075224;28;19908;-81
2022/10/25 11:02:15;;;;;;;;;;;19.60;99.90;;;;;;5076281;28;19912;-81
2022/10/25 11:04:47;;;;;;;;;;;20.00;99.90;;;;;;5093872;28;19924;-81
2022/10/25 11:07:23;;;;;;;;;;;20.90;99.90;;;;;;5094475;28;19911;-81
2022/10/25 11:09:48;;;;;;;;;;;21.30;99.90;;;;;;5075780;28;20290;-81
2022/10/25 11:12:14;;;;;;;;;;;21.00;99.90;;;;;;5094085;28;19908;-82
2022/10/25 11:14:39;;;;;;;;;;;20.70;99.90;;;;;;5075915;28;19908;-82
2022/10/25 11:17:12;;;;;;;;;;;20.40;99.90;;;;;;5074702;28;20383;-81
2022/10/25 11:19:39;;;;;;;;;;;20.60;99.90;;;;;;5076003;28;19915;-81
2022/10/25 11:22:25;;;;;;;;;;;20.80;99.90;;;;;;5075413;28;19991;-82
2022/10/25 11:25:02;;;;;;;;;;;22.70;99.90;;;;;;5024810;28;19985;-82
2022/10/25 11:27:46;;;;;;;;;;;24.70;99.90;;;;;;5075137;28;20379;-82
2022/10/25 11:30:16;;;;;;;;;;;25.70;99.90;;;;;;5075359;28;20291;-84
2022/10/25 11:33:05;;;;;;;;;;;26.90;99.90;;;;;;5075455;28;20316;-83
2022/10/25 11:35:43;;;;;;;;;;;27.40;99.90;;;;;;5079721;28;19908;-83
2022/10/25 11:38:08;;;;;;;;;;;27.50;99.90;;;;;;5075159;28;19908;-83
2022/10/25 11:40:38;;;;;;;;;;;27.10;99.90;;;;;;5075215;28;19998;-83
2022/10/25 11:43:15;;;;;;;;;;;26.80;99.90;;;;;;5093418;28;19961;-83
2022/10/25 11:45:43;;;;;;;;;;;26.20;99.90;;;;;;5075673;28;20002;-83
2022/10/25 11:48:20;;;;;;;;;;;25.10;99.90;;;;;;5094778;28;19914;-83
2022/10/25 11:50:48;;;;;;;;;;;24.30;99.90;;;;;;5076067;28;20264;-83
2022/10/25 11:53:32;;;;;;;;;;;23.40;99.90;;;;;;5076398;28;20444;-82
2022/10/25 11:56:00;;;;;;;;;;;23.10;99.90;;;;;;5094615;28;19908;-83
2022/10/25 11:58:41;;;;;;;;;;;23.20;99.90;;;;;;5093718;28;20274;-84
2022/10/25 12:01:25;;;;;;;;;;;23.10;99.90;;;;;;5076393;28;19912;-84
2022/10/25 12:04:10;;;;;;;;;;;22.80;99.90;;;;;;5072233;28;19908;-83
2022/10/25 12:06:35;;;;;;;;;;;22.60;99.90;;;;;;5054876;28;19916;-83
2022/10/25 12:09:10;;;;;;;;;;;22.30;99.90;;;;;;5055731;28;20382;-84
2022/10/25 12:11:42;;;;;;;;;;;22.20;99.90;;;;;;5074241;28;19917;-83
2022/10/25 12:14:10;;;;;;;;;;;22.20;99.90;;;;;;5055259;28;19915;-83
2022/10/25 12:16:37;;;;;;;;;;;22.30;99.90;;;;;;5054774;28;19909;-84
2022/10/25 12:19:18;;;;;;;;;;;22.30;99.90;;;;;;5073100;28;19908;-83
2022/10/25 12:21:50;;;;;;;;;;;21.90;99.90;;;;;;5072910;28;19916;-83
2022/10/25 12:24:20;;;;;;;;;;;21.50;99.90;;;;;;5054781;28;19935;-82
2022/10/25 12:26:47;;;;;;;;;;;21.20;99.90;;;;;;5054161;28;19915;-83
2022/10/25 12:29:33;;;;;;;;;;;21.00;99.90;;;;;;5072342;28;19913;-82
2022/10/25 12:32:04;;;;;;;;;;;20.80;99.90;;;;;;5053734;28;19908;-84
2022/10/25 12:34:41;;;;;;;;;;;20.80;99.90;;;;;;5054456;28;19912;-83
2022/10/25 12:37:12;;;;;;;;;;;20.60;99.90;;;;;;5072495;28;19919;-83
2022/10/25 12:39:39;;;;;;;;;;;20.90;99.90;;;;;;5054609;28;19916;-84
2022/10/25 12:42:08;;;;;;;;;;;20.80;99.90;;;;;;5054521;28;19916;-83
2022/10/25 12:44:47;;;;;;;;;;;20.80;99.90;;;;;;5054187;28;20071;-83
2022/10/25 12:47:28;;;;;;;;;;;20.70;99.90;;;;;;5056862;28;20345;-85
2022/10/25 12:50:00;;;;;;;;;;;20.70;99.90;;;;;;5057277;28;19913;-83
2022/10/25 12:52:57;;;;;;;;;;;20.60;99.90;;;;;;5055614;28;19909;-89
2022/10/25 12:55:29;;;;;;;;;;;22.10;99.90;;;;;;5054045;28;20010;-82
2022/10/25 12:58:13;;;;;;;;;;;22.80;99.90;;;;;;5054285;28;19908;-83
2022/10/25 13:00:57;;;;;;;;;;;22.60;99.90;;;;;;5054763;28;19909;-83
2022/10/25 13:03:35;;;;;;;;;;;22.50;99.90;;;;;;5071977;28;19909;-82
2022/10/25 13:06:07;;;;;;;;;;;22.90;99.90;;;;;;5053800;28;19973;-82
2022/10/25 13:08:33;;;;;;;;;;;22.90;99.90;;;;;;5072229;28;20405;-83
2022/10/25 13:11:00;;;;;;;;;;;22.70;99.90;;;;;;5054009;28;19950;-83
2022/10/25 13:13:27;;;;;;;;;;;22.50;99.90;;;;;;5054115;28;19916;-82
2022/10/25 13:15:55;;;;;;;;;;;22.00;99.90;;;;;;5053587;28;19909;-83
2022/10/25 13:18:24;;;;;;;;;;;21.80;99.90;;;;;;5054095;28;20383;-82
2022/10/25 13:20:50;;;;;;;;;;;21.80;99.90;;;;;;5054011;28;19950;-82
2022/10/25 13:23:34;;;;;;;;;;;21.50;99.90;;;;;;5054142;28;19978;-82
2022/10/25 13:26:03;;;;;;;;;;;21.30;99.90;;;;;;5053420;28;20283;-82
2022/10/25 13:28:29;;;;;;;;;;;21.00;99.90;;;;;;5071879;28;19908;-82
2022/10/25 13:31:13;;;;;;;;;;;20.90;99.90;;;;;;5053656;28;19969;-82
2022/10/25 13:33:39;;;;;;;;;;;20.60;99.90;;;;;;5071784;28;19908;-83
2022/10/25 13:36:05;;;;;;;;;;;20.50;99.90;;;;;;5053552;28;20403;-82
2022/10/25 13:38:32;;;;;;;;;;;20.50;99.90;;;;;;5071945;28;20285;-82
2022/10/25 13:41:03;;;;;;;;;;;20.40;99.90;;;;;;5056018;28;19912;-83
2022/10/25 13:43:29;;;;;;;;;;;20.30;99.90;;;;;;5075487;28;20294;-82
2022/10/25 13:45:55;;;;;;;;;;;20.20;99.90;;;;;;5057458;28;19999;-82
2022/10/25 13:48:28;;;;;;;;;;;20.30;99.90;;;;;;5057545;28;19912;-82
2022/10/25 13:50:58;;;;;;;;;;;20.30;99.90;;;;;;5057421;28;19912;-83
2022/10/25 13:53:29;;;;;;;;;;;20.50;99.90;;;;;;5075359;28;19914;-84
2022/10/25 13:55:54;;;;;;;;;;;20.90;99.90;;;;;;5056966;28;20344;-82
2022/10/25 13:58:38;;;;;;;;;;;21.40;99.90;;;;;;5075296;28;19952;-83
2022/10/25 14:01:16;;;;;;;;;;;21.90;99.90;;;;;;5075209;28;19916;-82
2022/10/25 14:03:47;;;;;;;;;;;22.30;99.90;;;;;;5075071;28;19908;-82
2022/10/25 14:06:21;;;;;;;;;;;22.50;99.90;;;;;;5074547;28;19924;-82
2022/10/25 14:09:13;;;;;;;;;;;22.80;99.90;;;;;;5057153;28;19912;-82
2022/10/25 14:11:44;;;;;;;;;;;23.00;99.90;;;;;;5043685;28;19947;-82
2022/10/25 14:14:10;;;;;;;;;;;22.80;99.90;;;;;;5074869;28;19923;-84
2022/10/25 14:16:45;;;;;;;;;;;22.70;99.90;;;;;;5056515;28;19912;-83
2022/10/25 14:19:15;;;;;;;;;;;22.40;99.90;;;;;;5056886;28;19909;-84
2022/10/25 14:21:44;;;;;;;;;;;22.30;99.90;;;;;;5056928;28;19909;-83
2022/10/25 14:24:12;;;;;;;;;;;22.10;99.90;;;;;;5056843;28;19969;-83
2022/10/25 14:26:47;;;;;;;;;;;22.00;99.90;;;;;;5056480;28;19966;-83
2022/10/25 14:29:13;;;;;;;;;;;21.80;99.90;;;;;;5056632;28;19909;-84
2022/10/25 14:31:39;;;;;;;;;;;21.70;99.90;;;;;;5057003;28;20006;-83